Time;durP1;ratioP1;P1;durP2;ratioP2;P2;SDS_P1;SDS_P2;PMS_P1;PMS_P2;Temp;Humidity;BMP_temperature;BMP_pressure;BME280_temperature;BME280_humidity;BME280_pressure;Samples;Min_cycle;Max_cycle;Signal;HPM_P1;HPM_P2
2023/08/13 00:01:33;;;;;;;4.55;2.45;;;;;;;21.53;42.09;100470.31;5031570;28;20226;-62
2023/08/13 00:04:02;;;;;;;4.75;2.25;;;;;;;21.53;42.01;100465.91;5030903;28;20210;-63
2023/08/13 00:06:30;;;;;;;3.58;2.15;;;;;;;21.52;42.31;100468.63;5031336;28;20252;-62
2023/08/13 00:08:58;;;;;;;4.57;2.28;;;;;;;21.51;42.13;100467.78;5024175;28;20203;-62
2023/08/13 00:11:26;;;;;;;4.13;2.25;;;;;;;21.51;42.46;100464.31;5033236;28;20230;-63
2023/08/13 00:13:54;;;;;;;4.68;2.25;;;;;;;21.49;42.02;100466.16;5031441;28;20214;-63
2023/08/13 00:16:22;;;;;;;2.60;2.08;;;;;;;21.51;42.28;100462.53;5020997;28;20215;-63
2023/08/13 00:18:50;;;;;;;5.72;2.67;;;;;;;21.51;42.64;100462.53;5024082;28;20697;-63
2023/08/13 00:21:20;;;;;;;3.75;2.10;;;;;;;21.51;42.57;100461.69;5032040;28;20617;-63
2023/08/13 00:23:50;;;;;;;4.72;2.30;;;;;;;21.50;42.61;100468.69;5028480;28;20657;-62
2023/08/13 00:26:18;;;;;;;3.45;2.25;;;;;;;21.50;42.46;100463.44;5029378;28;20238;-62
2023/08/13 00:28:46;;;;;;;3.70;1.80;;;;;;;21.52;42.62;100466.84;5029385;28;20211;-63
2023/08/13 00:31:14;;;;;;;2.88;2.50;;;;;;;21.54;42.66;100467.63;5029097;28;20207;-63
2023/08/13 00:33:43;;;;;;;2.88;1.80;;;;;;;21.55;42.36;100463.22;5031783;28;20761;-66
2023/08/13 00:36:11;;;;;;;5.07;2.22;;;;;;;21.52;42.33;100458.13;5031796;28;20312;-63
2023/08/13 00:38:40;;;;;;;5.03;3.50;;;;;;;21.53;42.38;100459.81;5027882;28;20226;-63
2023/08/13 00:41:08;;;;;;;3.28;2.22;;;;;;;21.54;42.41;100461.50;5029052;28;20203;-61
2023/08/13 00:43:37;;;;;;;5.80;2.40;;;;;;;21.54;42.56;100467.63;5029698;28;20214;-63
2023/08/13 00:46:05;;;;;;;3.90;2.10;;;;;;;21.55;42.75;100471.09;5029400;28;20205;-63
2023/08/13 00:48:33;;;;;;;4.97;2.55;;;;;;;21.55;42.54;100464.06;5029000;28;20211;-62
2023/08/13 00:51:02;;;;;;;6.20;2.97;;;;;;;21.54;42.81;100467.63;5029841;28;20653;-63
2023/08/13 00:53:30;;;;;;;3.70;2.65;;;;;;;21.52;42.73;100468.63;5030074;28;20720;-64
2023/08/13 00:55:59;;;;;;;3.03;2.17;;;;;;;21.50;42.75;100466.06;5025052;28;20612;-62
2023/08/13 00:58:27;;;;;;;3.00;2.50;;;;;;;21.50;43.34;100467.84;5029630;28;20219;-64
2023/08/13 01:00:55;;;;;;;3.40;2.55;;;;;;;21.46;43.30;100462.75;5021000;28;20203;-63
2023/08/13 01:03:23;;;;;;;3.75;2.60;;;;;;;21.43;43.33;100459.47;5024222;28;20673;-64
2023/08/13 01:05:56;;;;;;;4.13;2.83;;;;;;;21.42;43.72;100460.34;5027221;28;20210;-63
2023/08/13 01:08:33;;;;;;;5.20;3.17;;;;;;;21.38;43.97;100461.44;5029748;28;20203;-62
2023/08/13 01:11:10;;;;;;;3.85;2.95;;;;;;;21.34;44.04;100465.97;5026294;28;20773;-63
2023/08/13 01:13:44;;;;;;;5.25;3.08;;;;;;;21.31;44.33;100460.00;5030488;28;20206;-63
2023/08/13 01:16:14;;;;;;;5.68;2.72;;;;;;;21.26;44.62;100455.00;5026533;28;20209;-62
2023/08/13 01:18:43;;;;;;;4.72;2.72;;;;;;;21.23;44.78;100466.47;5025731;28;20328;-63
2023/08/13 01:21:11;;;;;;;4.70;3.08;;;;;;;21.23;45.05;100463.84;5029039;28;20202;-63
2023/08/13 01:23:40;;;;;;;5.28;3.33;;;;;;;21.21;45.09;100465.72;5021719;28;20210;-63
2023/08/13 01:26:15;;;;;;;4.75;2.88;;;;;;;21.21;45.44;100463.09;5018606;28;20322;-64
2023/08/13 01:28:49;;;;;;;4.05;3.55;;;;;;;21.21;45.57;100465.72;5028958;28;20226;-64
2023/08/13 01:31:25;;;;;;;4.88;2.72;;;;;;;21.22;45.55;100446.44;5022372;28;20207;-63
2023/08/13 01:33:55;;;;;;;6.50;3.28;;;;;;;21.26;45.94;100454.16;5020037;28;20210;-62
2023/08/13 01:36:25;;;;;;;4.93;3.53;;;;;;;21.25;45.87;100448.06;5029254;28;20206;-62
2023/08/13 01:38:56;;;;;;;3.75;2.88;;;;;;;21.26;45.78;100448.91;5029860;28;20685;-62
2023/08/13 01:41:24;;;;;;;6.50;3.05;;;;;;;21.27;45.82;100451.44;5028597;28;20202;-62
2023/08/13 01:43:52;;;;;;;6.32;3.05;;;;;;;21.30;46.06;100450.47;5029241;28;20237;-63
2023/08/13 01:46:20;;;;;;;5.38;3.30;;;;;;;21.28;46.09;100439.19;5019631;28;20232;-67
2023/08/13 01:48:48;;;;;;;6.93;3.45;;;;;;;21.29;46.02;100447.00;5029069;28;20562;-62
2023/08/13 01:51:16;;;;;;;8.10;3.47;;;;;;;21.31;46.34;100436.41;5028129;28;20256;-61
2023/08/13 01:53:44;;;;;;;5.43;3.33;;;;;;;21.30;46.38;100437.34;5028327;28;20199;-62
2023/08/13 01:56:13;;;;;;;5.38;3.45;;;;;;;21.26;46.31;100436.66;5023885;28;20205;-62
2023/08/13 01:58:41;;;;;;;4.75;3.00;;;;;;;21.28;46.57;100441.81;5028393;28;20256;-63
2023/08/13 02:01:09;;;;;;;4.95;3.70;;;;;;;21.29;46.10;100440.91;5020183;28;20663;-62
2023/08/13 02:03:37;;;;;;;5.38;3.45;;;;;;;21.23;46.86;100435.03;5029030;28;20276;-63
2023/08/13 02:06:05;;;;;;;6.25;3.85;;;;;;;21.18;46.81;100434.41;5027269;28;20199;-63
2023/08/13 02:08:33;;;;;;;6.60;3.72;;;;;;;21.13;47.48;100439.03;5026790;28;20210;-64
2023/08/13 02:11:01;;;;;;;7.47;4.20;;;;;;;21.09;47.58;100444.50;5026313;28;20632;-63
2023/08/13 02:13:30;;;;;;;7.22;3.80;;;;;;;21.05;47.63;100446.41;5028738;28;20209;-61
2023/08/13 02:16:02;;;;;;;5.70;3.88;;;;;;;21.03;47.93;100444.81;5028641;28;20207;-67
2023/08/13 02:18:30;;;;;;;5.57;3.83;;;;;;;20.97;48.24;100443.31;5028154;28;20223;-66
2023/08/13 02:20:58;;;;;;;7.25;4.20;;;;;;;20.90;48.49;100434.91;5024142;28;20203;-63
2023/08/13 02:23:26;;;;;;;5.32;4.07;;;;;;;20.81;48.85;100437.97;5029373;28;20222;-63
2023/08/13 02:25:54;;;;;;;7.20;4.40;;;;;;;20.82;48.87;100437.03;5026715;28;20647;-62
2023/08/13 02:28:22;;;;;;;8.13;4.13;;;;;;;20.81;49.20;100437.97;5029187;28;20657;-62
2023/08/13 02:30:52;;;;;;;5.75;4.13;;;;;;;20.82;49.10;100430.97;5027869;28;20942;-62
2023/08/13 02:33:20;;;;;;;6.15;4.30;;;;;;;20.81;49.40;100437.97;5021241;28;20293;-62
2023/08/13 02:35:48;;;;;;;5.93;4.13;;;;;;;20.76;49.39;100432.09;5028584;28;20991;-61
2023/08/13 02:38:16;;;;;;;6.82;4.35;;;;;;;20.77;49.84;100435.56;5027435;28;20210;-62
2023/08/13 02:40:44;;;;;;;6.07;4.13;;;;;;;20.71;49.87;100432.31;5025972;28;20693;-63
2023/08/13 02:43:12;;;;;;;8.68;3.85;;;;;;;20.71;50.01;100423.63;5031429;28;20672;-62
2023/08/13 02:45:40;;;;;;;5.82;4.07;;;;;;;20.69;50.10;100428.94;5028464;28;20207;-63
2023/08/13 02:48:10;;;;;;;8.23;4.80;;;;;;;20.68;50.25;100429.84;5030578;28;20662;-62
2023/08/13 02:50:38;;;;;;;6.88;3.83;;;;;;;20.66;50.05;100421.22;5026213;28;20198;-62
2023/08/13 02:53:06;;;;;;;6.22;4.20;;;;;;;20.66;50.04;100423.84;5027788;28;20626;-63
2023/08/13 02:55:33;;;;;;;7.13;5.00;;;;;;;20.68;50.48;100423.75;5032221;28;20267;-66
2023/08/13 02:58:01;;;;;;;4.97;3.83;;;;;;;20.66;50.16;100421.22;5031271;28;20209;-62
2023/08/13 03:00:37;;;;;;;7.40;4.20;;;;;;;20.66;50.26;100418.59;5032186;28;20264;-63
2023/08/13 03:03:06;;;;;;;5.20;3.95;;;;;;;20.58;50.29;100406.78;5028950;28;20207;-65
2023/08/13 03:05:36;;;;;;;6.53;4.05;;;;;;;20.54;50.54;100413.94;5031676;28;20210;-64
2023/08/13 03:08:04;;;;;;;8.48;4.68;;;;;;;20.47;50.81;100410.75;5027575;28;20207;-61
2023/08/13 03:10:32;;;;;;;8.32;4.72;;;;;;;20.41;50.96;100404.94;5029195;28;20198;-63
2023/08/13 03:13:00;;;;;;;7.00;4.22;;;;;;;20.34;51.28;100406.97;5029881;28;20206;-63
2023/08/13 03:15:28;;;;;;;7.47;4.57;;;;;;;20.35;51.43;100408.66;5031761;28;20206;-64
2023/08/13 03:17:57;;;;;;;6.22;4.53;;;;;;;20.32;51.33;100410.56;5031953;28;20290;-65
2023/08/13 03:20:25;;;;;;;7.50;4.55;;;;;;;20.24;51.72;100417.00;5031526;28;20682;-63
2023/08/13 03:22:54;;;;;;;6.28;4.13;;;;;;;20.24;51.81;100409.16;5024232;28;20685;-63
2023/08/13 03:25:22;;;;;;;4.68;4.15;;;;;;;20.25;51.95;100412.63;5029181;28;20238;-63
2023/08/13 03:27:50;;;;;;;4.85;4.22;;;;;;;20.28;51.80;100408.09;5028015;28;20237;-63
2023/08/13 03:30:18;;;;;;;5.80;4.35;;;;;;;20.30;52.02;100404.59;5030024;28;20236;-62
2023/08/13 03:32:46;;;;;;;7.80;4.75;;;;;;;20.30;52.16;100405.44;5026935;28;20207;-62
2023/08/13 03:35:14;;;;;;;7.38;4.65;;;;;;;20.30;51.77;100401.97;5032257;28;21102;-62
2023/08/13 03:37:42;;;;;;;6.35;4.55;;;;;;;20.31;51.97;100411.50;5031750;28;20239;-62
2023/08/13 03:40:13;;;;;;;6.38;4.40;;;;;;;20.31;52.05;100416.75;5029779;28;20272;-62
2023/08/13 03:42:41;;;;;;;6.35;4.72;;;;;;;20.27;52.12;100414.25;5030262;28;20238;-64
2023/08/13 03:45:09;;;;;;;11.40;4.85;;;;;;;20.23;52.08;100411.84;5028844;28;20294;-64
2023/08/13 03:47:38;;;;;;;7.93;4.80;;;;;;;20.19;52.47;100403.31;5029791;28;20213;-62
2023/08/13 03:50:06;;;;;;;6.57;4.10;;;;;;;20.19;52.41;100405.91;5029852;28;20210;-64
2023/08/13 03:52:34;;;;;;;6.97;4.10;;;;;;;20.19;52.50;100392.00;5030203;28;20213;-63
2023/08/13 03:55:03;;;;;;;8.50;4.78;;;;;;;20.20;52.46;100386.66;5029281;28;20253;-63
2023/08/13 03:57:32;;;;;;;6.47;4.35;;;;;;;20.23;52.38;100381.31;5024875;28;20207;-64
2023/08/13 04:00:00;;;;;;;5.93;4.15;;;;;;;20.25;52.36;100387.34;5028843;28;20222;-62
2023/08/13 04:02:33;;;;;;;5.97;4.50;;;;;;;20.27;52.20;100403.78;5030411;28;20222;-62
2023/08/13 04:05:04;;;;;;;6.53;4.53;;;;;;;20.20;52.43;100386.66;5029369;28;20210;-62
2023/08/13 04:07:32;;;;;;;5.80;4.63;;;;;;;20.21;52.47;100385.78;5029479;28;20584;-62
2023/08/13 04:10:00;;;;;;;7.35;4.70;;;;;;;20.18;52.62;100387.69;5030135;28;20195;-63
2023/08/13 04:12:28;;;;;;;6.82;4.50;;;;;;;20.12;52.78;100395.81;5026311;28;20684;-63
2023/08/13 04:15:00;;;;;;;5.85;4.40;;;;;;;20.07;53.11;100398.63;5026575;28;20207;-65
2023/08/13 04:17:28;;;;;;;5.63;4.38;;;;;;;20.06;53.33;100393.44;5028453;28;20630;-63
2023/08/13 04:19:56;;;;;;;6.50;4.50;;;;;;;20.08;53.21;100387.25;5028091;28;20214;-62
2023/08/13 04:22:24;;;;;;;6.70;4.10;;;;;;;20.05;53.14;100391.75;5029865;28;20199;-62
2023/08/13 04:24:52;;;;;;;7.70;4.63;;;;;;;20.00;53.25;100389.38;5029266;28;20203;-63
2023/08/13 04:27:20;;;;;;;8.80;4.60;;;;;;;19.97;53.51;100400.81;5028366;28;20238;-62
2023/08/13 04:29:48;;;;;;;7.13;4.78;;;;;;;20.05;53.49;100391.75;5026731;28;20199;-62
2023/08/13 04:32:17;;;;;;;4.95;4.45;;;;;;;20.17;53.71;100396.44;5027476;28;20202;-62
2023/08/13 04:34:45;;;;;;;10.60;5.05;;;;;;;20.27;53.07;100401.19;5023562;28;20230;-62
2023/08/13 04:37:13;;;;;;;8.80;4.60;;;;;;;20.42;53.03;100396.16;5031064;28;20202;-63
2023/08/13 04:39:41;;;;;;;7.30;4.72;;;;;;;20.60;52.39;100400.56;5030292;28;20294;-64
2023/08/13 04:42:10;;;;;;;4.45;4.05;;;;;;;20.78;52.12;100398.84;5029132;28;20622;-64
2023/08/13 04:44:39;;;;;;;6.32;4.32;;;;;;;20.92;51.77;100399.03;5030516;28;20238;-63
2023/08/13 04:47:07;;;;;;;6.85;4.78;;;;;;;21.06;51.20;100397.47;5023238;28;20665;-62
2023/08/13 04:49:36;;;;;;;6.28;4.68;;;;;;;21.20;51.02;100392.41;5031166;28;20824;-62
2023/08/13 04:52:05;;;;;;;7.18;4.85;;;;;;;21.36;50.51;100387.28;5026935;28;20210;-63
2023/08/13 04:54:32;;;;;;;6.93;4.05;;;;;;;21.56;50.40;100397.59;5025334;28;20290;-63
2023/08/13 04:57:00;;;;;;;4.90;4.10;;;;;;;21.77;49.95;100400.03;5030184;28;20203;-67
2023/08/13 04:59:28;;;;;;;6.60;4.40;;;;;;;21.84;49.14;100398.78;5028253;28;20215;-63
2023/08/13 05:01:56;;;;;;;5.25;4.40;;;;;;;21.88;49.17;100408.19;5027478;28;20230;-66
2023/08/13 05:04:24;;;;;;;6.00;4.88;;;;;;;21.94;49.05;100392.97;5028273;28;20638;-63
2023/08/13 05:06:53;;;;;;;8.43;4.35;;;;;;;22.10;49.11;100392.16;5026823;28;20202;-65
2023/08/13 05:09:21;;;;;;;6.38;4.50;;;;;;;22.31;48.49;100391.00;5027483;28;20210;-71
2023/08/13 05:11:49;;;;;;;9.00;4.50;;;;;;;22.41;48.02;100388.72;5030910;28;20206;-62
2023/08/13 05:14:17;;;;;;;5.65;4.63;;;;;;;22.41;48.27;100392.19;5030581;28;20199;-62
2023/08/13 05:16:45;;;;;;;7.75;4.70;;;;;;;22.38;48.39;100375.75;5030682;28;20202;-64
2023/08/13 05:19:13;;;;;;;5.10;4.38;;;;;;;22.33;48.51;100378.63;5028428;28;20202;-63
2023/08/13 05:21:41;;;;;;;5.75;4.30;;;;;;;22.24;48.77;100375.66;5026421;28;20273;-64
2023/08/13 05:24:11;;;;;;;5.78;4.28;;;;;;;22.27;49.12;100375.50;5025446;28;20252;-63
2023/08/13 05:26:39;;;;;;;5.45;3.92;;;;;;;22.40;49.03;100371.28;5028228;28;20266;-63
2023/08/13 05:29:06;;;;;;;8.05;4.53;;;;;;;23.08;48.15;100384.91;5029996;28;20225;-64
2023/08/13 05:31:35;;;;;;;4.53;3.95;;;;;;;24.21;45.14;100384.31;5028735;28;20293;-62
2023/08/13 05:34:03;;;;;;;5.78;4.10;;;;;;;24.97;43.03;100381.19;5027650;28;20297;-63
2023/08/13 05:36:31;;;;;;;6.82;4.32;;;;;;;24.76;42.79;100381.66;5029380;28;20206;-64
2023/08/13 05:39:00;;;;;;;5.32;4.35;;;;;;;24.50;43.34;100378.06;5028397;28;20203;-63
2023/08/13 05:41:29;;;;;;;5.55;4.05;;;;;;;24.68;44.13;100383.09;5022309;28;20317;-63
2023/08/13 05:43:57;;;;;;;4.97;4.47;;;;;;;25.26;42.58;100392.47;5026941;28;20222;-62
2023/08/13 05:46:25;;;;;;;6.40;4.15;;;;;;;25.94;40.90;100380.78;5026867;28;20214;-63
2023/08/13 05:48:53;;;;;;;7.60;4.57;;;;;;;26.35;40.09;100387.56;5027692;28;20234;-64
2023/08/13 05:51:21;;;;;;;6.63;4.65;;;;;;;26.15;39.92;100383.72;5029294;28;20250;-62
2023/08/13 05:53:49;;;;;;;5.68;4.30;;;;;;;25.93;40.50;100381.75;5029541;28;20213;-66
2023/08/13 05:56:17;;;;;;;7.30;4.88;;;;;;;25.67;41.08;100375.59;5030406;28;20249;-66
2023/08/13 05:58:47;;;;;;;7.00;4.55;;;;;;;25.34;41.42;100384.88;5026478;28;20604;-64
2023/08/13 06:01:15;;;;;;;7.72;3.83;;;;;;;25.09;42.73;100376.91;5030047;28;20643;-62
2023/08/13 06:03:43;;;;;;;5.50;4.55;;;;;;;24.94;42.89;100384.88;5028248;28;20715;-65
2023/08/13 06:06:12;;;;;;;6.30;4.10;;;;;;;24.87;43.49;100391.50;5027164;28;20244;-63
2023/08/13 06:08:39;;;;;;;5.18;4.03;;;;;;;24.83;43.57;100382.94;5024519;28;20202;-64
2023/08/13 06:11:07;;;;;;;4.40;4.00;;;;;;;24.94;43.34;100379.59;5025081;28;20630;-67
2023/08/13 06:13:38;;;;;;;10.07;4.40;;;;;;;25.33;43.05;100366.50;5028050;28;20941;-62
2023/08/13 06:16:08;;;;;;;4.53;4.10;;;;;;;25.80;41.92;100365.06;5026372;28;20225;-64
2023/08/13 06:18:36;;;;;;;4.68;4.15;;;;;;;26.17;40.96;100372.06;5029766;28;20214;-63
2023/08/13 06:21:04;;;;;;;5.68;4.50;;;;;;;26.17;41.01;100371.22;5027688;28;20302;-63
2023/08/13 06:23:32;;;;;;;5.20;3.88;;;;;;;26.07;41.26;100368.41;5027136;28;20202;-62
2023/08/13 06:26:00;;;;;;;5.55;4.10;;;;;;;26.13;41.29;100377.69;5023196;28;20246;-64
2023/08/13 06:28:28;;;;;;;6.50;4.28;;;;;;;26.96;40.07;100381.28;5032576;28;20297;-63
2023/08/13 06:30:56;;;;;;;5.93;4.03;;;;;;;27.28;39.33;100385.13;5030740;28;20654;-64
2023/08/13 06:33:25;;;;;;;6.13;4.30;;;;;;;27.19;39.17;100381.41;5029687;28;20203;-63
2023/08/13 06:35:53;;;;;;;6.45;4.63;;;;;;;27.37;39.72;100382.63;5027384;28;20293;-63
2023/08/13 06:38:23;;;;;;;8.10;4.93;;;;;;;27.93;38.20;100382.72;5028454;28;20287;-62
2023/08/13 06:40:52;;;;;;;6.45;4.35;;;;;;;28.39;37.46;100379.09;5031157;28;20222;-63
2023/08/13 06:43:19;;;;;;;5.20;3.70;;;;;;;28.27;36.74;100381.84;5030964;28;20209;-63
2023/08/13 06:45:47;;;;;;;7.68;4.55;;;;;;;27.75;37.43;100381.50;5032421;28;20209;-64
2023/08/13 06:48:15;;;;;;;4.72;3.95;;;;;;;27.11;38.79;100394.34;5029359;28;20246;-63
2023/08/13 06:50:48;;;;;;;6.03;4.40;;;;;;;26.53;40.88;100393.34;5033884;28;20217;-63
2023/08/13 06:53:16;;;;;;;7.05;4.35;;;;;;;26.40;41.33;100399.50;5026494;28;20226;-64
2023/08/13 06:55:44;;;;;;;5.55;4.38;;;;;;;26.67;41.21;100396.66;5031866;28;20206;-61
2023/08/13 06:58:12;;;;;;;4.35;3.90;;;;;;;27.26;40.47;100390.56;5028864;28;20203;-63
2023/08/13 07:00:41;;;;;;;5.57;4.20;;;;;;;27.61;39.04;100389.66;5034432;28;20206;-62
2023/08/13 07:03:10;;;;;;;7.93;4.30;;;;;;;28.49;39.05;100386.28;5030298;28;20254;-62
2023/08/13 07:05:39;;;;;;;6.03;3.95;;;;;;;29.01;37.09;100387.31;5033026;28;20290;-63
2023/08/13 07:08:10;;;;;;;5.32;4.20;;;;;;;28.99;36.65;100387.47;5027370;28;20268;-62
2023/08/13 07:10:40;;;;;;;9.18;3.97;;;;;;;28.62;37.00;100385.16;5032967;28;20550;-62
2023/08/13 07:13:08;;;;;;;5.03;4.45;;;;;;;28.29;37.91;100394.00;5032738;28;20213;-62
2023/08/13 07:15:36;;;;;;;5.13;4.35;;;;;;;27.99;38.67;100392.00;5029849;28;20704;-63
2023/08/13 07:18:05;;;;;;;10.13;4.88;;;;;;;27.76;39.49;100391.13;5031664;28;20638;-60
2023/08/13 07:20:33;;;;;;;4.20;3.75;;;;;;;28.03;39.88;100395.25;5032835;28;20219;-60
2023/08/13 07:23:03;;;;;;;5.47;3.92;;;;;;;28.84;38.83;100394.00;5028896;28;20558;-64
2023/08/13 07:25:35;;;;;;;6.05;4.13;;;;;;;30.08;36.12;100391.44;5032261;28;20203;-62
2023/08/13 07:28:06;;;;;;;6.28;3.72;;;;;;;30.57;34.66;100392.44;5032054;28;20203;-60
2023/08/13 07:30:34;;;;;;;4.68;3.90;;;;;;;30.17;35.31;100397.81;5033268;28;20731;-62
2023/08/13 07:33:01;;;;;;;5.43;4.18;;;;;;;31.07;34.62;100386.16;5032184;28;20654;-61
2023/08/13 07:35:30;;;;;;;7.32;3.70;;;;;;;33.19;30.97;100386.97;5029680;28;20207;-63
2023/08/13 07:37:58;;;;;;;6.10;4.22;;;;;;;35.43;27.54;100379.28;5029423;28;20288;-64
2023/08/13 07:40:26;;;;;;;7.40;3.70;;;;;;;37.57;24.21;100377.00;5030739;28;20205;-63
2023/08/13 07:42:58;;;;;;;5.75;3.75;;;;;;;39.22;21.82;100369.91;5027447;28;20779;-61
2023/08/13 07:45:27;;;;;;;4.85;3.50;;;;;;;40.67;20.57;100377.00;5035957;28;20252;-61
2023/08/13 07:47:55;;;;;;;5.07;3.20;;;;;;;41.75;19.24;100382.09;5032628;28;20206;-65
2023/08/13 07:50:23;;;;;;;5.43;3.30;;;;;;;42.01;18.81;100385.75;5030103;28;20352;-62
2023/08/13 07:52:51;;;;;;;3.50;3.20;;;;;;;42.14;19.04;100380.28;5025728;28;20287;-64
2023/08/13 07:55:19;;;;;;;5.95;3.47;;;;;;;42.15;18.65;100382.75;5031095;28;20565;-64
2023/08/13 07:57:48;;;;;;;5.38;3.63;;;;;;;42.20;18.63;100371.28;5031237;28;20202;-64
2023/08/13 08:00:17;;;;;;;4.57;2.90;;;;;;;42.64;18.55;100374.97;5020371;28;20205;-65
2023/08/13 08:02:45;;;;;;;3.50;3.05;;;;;;;42.99;17.59;100372.63;5031713;28;20606;-67
2023/08/13 08:05:13;;;;;;;5.60;3.10;;;;;;;42.92;17.80;100371.84;5032478;28;20216;-64
2023/08/13 08:07:41;;;;;;;3.92;2.63;;;;;;;42.84;17.79;100370.25;5029204;28;20987;-65
2023/08/13 08:10:09;;;;;;;3.47;3.15;;;;;;;42.53;18.05;100379.22;5028893;28;20293;-65
2023/08/13 08:12:37;;;;;;;3.95;3.33;;;;;;;42.36;18.27;100372.69;5027047;28;20743;-66
2023/08/13 08:15:06;;;;;;;7.30;3.03;;;;;;;42.65;17.96;100371.22;5031500;28;20733;-65
2023/08/13 08:17:37;;;;;;;3.28;2.72;;;;;;;42.61;18.16;100378.97;5032489;28;20730;-65
2023/08/13 08:20:07;;;;;;;4.72;3.17;;;;;;;42.81;18.23;100375.28;5027923;28;20201;-64
2023/08/13 08:22:35;;;;;;;3.20;2.92;;;;;;;43.34;17.38;100369.38;5024922;28;20218;-66
2023/08/13 08:25:07;;;;;;;8.23;3.00;;;;;;;43.65;16.90;100371.16;5022520;28;20214;-65
2023/08/13 08:27:35;;;;;;;3.53;2.67;;;;;;;43.63;17.20;100374.09;5022675;28;20233;-66
2023/08/13 08:30:03;;;;;;;6.50;2.95;;;;;;;43.33;17.36;100370.44;5036112;28;20206;-66
2023/08/13 08:32:32;;;;;;;5.13;3.30;;;;;;;43.08;17.36;100363.16;5028775;28;20241;-65
2023/08/13 08:35:03;;;;;;;4.50;3.00;;;;;;;43.02;17.52;100364.06;5031475;28;20194;-66
2023/08/13 08:37:33;;;;;;;7.45;3.05;;;;;;;42.76;17.67;100364.28;5032097;28;20677;-65
2023/08/13 08:40:03;;;;;;;2.75;2.55;;;;;;;41.95;18.78;100366.63;5018298;28;20305;-67
2023/08/13 08:42:31;;;;;;;3.25;2.67;;;;;;;41.14;19.52;100358.94;5026666;28;20210;-69
2023/08/13 08:45:00;;;;;;;5.50;3.28;;;;;;;40.31;20.35;100369.22;5029513;28;20252;-67
2023/08/13 08:47:29;;;;;;;2.60;2.40;;;;;;;38.63;22.08;100370.22;5029494;28;20205;-66
2023/08/13 08:50:03;;;;;;;4.25;3.22;;;;;;;37.04;24.11;100373.44;5016985;28;20687;-67
2023/08/13 08:52:34;;;;;;;3.67;2.95;;;;;;;35.56;25.95;100373.41;5019358;28;20304;-65
2023/08/13 08:55:04;;;;;;;3.22;2.92;;;;;;;34.58;27.19;100381.47;5019263;28;20236;-67
2023/08/13 08:57:32;;;;;;;5.63;3.17;;;;;;;33.69;28.85;100381.94;5028298;28;20202;-65
2023/08/13 09:00:00;;;;;;;6.82;3.10;;;;;;;33.07;30.18;100388.22;5021459;28;20572;-64
2023/08/13 09:02:28;;;;;;;3.00;2.80;;;;;;;32.60;31.19;100372.41;5020898;28;20199;-64
2023/08/13 09:04:56;;;;;;;5.25;2.80;;;;;;;32.28;31.76;100380.03;5022391;28;20250;-66
2023/08/13 09:07:30;;;;;;;4.70;3.28;;;;;;;32.02;32.22;100375.41;5024238;28;20211;-67
2023/08/13 09:10:00;;;;;;;5.57;3.20;;;;;;;32.08;32.42;100376.66;5023814;28;20203;-65
2023/08/13 09:12:34;;;;;;;4.78;2.90;;;;;;;32.37;32.54;100374.66;5028089;28;20258;-66
2023/08/13 09:15:05;;;;;;;5.00;2.92;;;;;;;33.07;31.63;100371.34;5030006;28;20207;-64
2023/08/13 09:17:33;;;;;;;7.13;3.22;;;;;;;34.29;29.95;100364.00;5027074;28;20872;-64
2023/08/13 09:20:01;;;;;;;7.00;3.55;;;;;;;35.59;27.43;100365.03;5029406;28;20206;-64
2023/08/13 09:22:32;;;;;;;4.40;3.03;;;;;;;36.45;25.96;100360.59;5026614;28;20219;-61
2023/08/13 09:25:03;;;;;;;7.03;3.42;;;;;;;37.05;24.92;100364.41;5024037;28;20198;-60
2023/08/13 09:27:31;;;;;;;5.93;3.53;;;;;;;37.50;25.01;100357.25;5041270;28;20717;-62
2023/08/13 09:29:59;;;;;;;4.57;3.50;;;;;;;37.81;24.87;100365.91;5030465;28;20608;-62
2023/08/13 09:32:31;;;;;;;4.25;3.10;;;;;;;37.73;24.43;100363.34;5029045;28;20570;-62
2023/08/13 09:35:04;;;;;;;3.05;2.78;;;;;;;37.44;24.36;100367.69;5031031;28;20209;-62
2023/08/13 09:37:32;;;;;;;5.70;3.15;;;;;;;37.41;24.71;100360.00;5030522;28;20226;-63
2023/08/13 09:40:00;;;;;;;4.60;3.15;;;;;;;37.28;25.74;100349.03;5028258;28;20230;-62
2023/08/13 09:42:33;;;;;;;4.70;3.30;;;;;;;37.10;25.29;100357.44;5024135;28;20647;-62
2023/08/13 09:45:03;;;;;;;4.38;3.72;;;;;;;36.79;25.56;100362.03;5030655;28;20252;-63
2023/08/13 09:47:34;;;;;;;4.88;3.42;;;;;;;35.97;26.37;100363.34;5029203;28;20662;-62
2023/08/13 09:50:03;;;;;;;3.58;3.28;;;;;;;35.25;27.82;100367.94;5029871;28;20199;-65
2023/08/13 09:52:33;;;;;;;3.60;3.30;;;;;;;34.89;28.69;100359.41;5027422;28;20234;-61
2023/08/13 09:55:08;;;;;;;4.00;3.00;;;;;;;34.81;29.53;100362.91;5028443;28;20194;-62
2023/08/13 09:57:39;;;;;;;5.40;3.17;;;;;;;34.90;28.85;100361.91;5027496;28;20640;-63
2023/08/13 10:00:08;;;;;;;4.32;3.58;;;;;;;35.13;28.60;100353.19;5028557;28;20211;-61
2023/08/13 10:02:36;;;;;;;7.13;3.47;;;;;;;35.25;28.89;100354.53;5019628;28;20634;-61
2023/08/13 10:05:05;;;;;;;4.80;3.33;;;;;;;35.46;28.28;100360.19;5023444;28;20203;-65
2023/08/13 10:07:33;;;;;;;3.58;3.28;;;;;;;35.76;27.98;100363.13;5021925;28;20206;-66
2023/08/13 10:10:02;;;;;;;4.53;3.20;;;;;;;36.36;27.67;100359.00;5028392;28;20642;-65
2023/08/13 10:12:38;;;;;;;3.88;3.25;;;;;;;36.77;25.78;100364.94;5024666;28;20210;-64
2023/08/13 10:15:08;;;;;;;6.72;3.17;;;;;;;36.80;26.30;100361.88;5025093;28;20211;-64
2023/08/13 10:17:37;;;;;;;6.10;3.50;;;;;;;36.77;26.72;100356.88;5029889;28;20199;-64
2023/08/13 10:20:06;;;;;;;5.20;3.28;;;;;;;37.05;26.70;100361.72;5021080;28;20199;-65
2023/08/13 10:22:36;;;;;;;4.32;3.33;;;;;;;36.68;26.77;100357.97;5019486;28;20211;-64
2023/08/13 10:25:06;;;;;;;3.67;3.38;;;;;;;36.38;26.93;100373.06;5022294;28;20230;-67
2023/08/13 10:27:36;;;;;;;3.10;2.85;;;;;;;36.50;27.14;100366.31;5024675;28;20624;-66
2023/08/13 10:30:08;;;;;;;3.65;2.53;;;;;;;36.54;26.14;100361.44;5022155;28;20209;-65
2023/08/13 10:32:47;;;;;;;3.08;2.70;;;;;;;36.65;26.92;100361.84;5026612;28;20615;-65
2023/08/13 10:35:24;;;;;;;3.00;2.70;;;;;;;36.72;26.72;100364.66;5028697;28;20209;-66
2023/08/13 10:37:54;;;;;;;4.72;2.70;;;;;;;37.09;27.03;100366.53;5027443;28;20272;-65
2023/08/13 10:40:22;;;;;;;4.00;2.95;;;;;;;37.31;25.88;100369.34;5024232;28;20238;-65
2023/08/13 10:42:52;;;;;;;6.57;2.90;;;;;;;37.47;26.35;100364.63;5024740;28;20203;-65
2023/08/13 10:45:24;;;;;;;2.97;2.72;;;;;;;37.61;25.41;100365.66;5025413;28;20261;-66
2023/08/13 10:47:54;;;;;;;5.25;2.65;;;;;;;37.42;26.32;100356.31;5028527;28;20682;-66
2023/08/13 10:50:26;;;;;;;3.50;3.08;;;;;;;37.39;26.20;100361.19;5026406;28;20199;-66
2023/08/13 10:52:56;;;;;;;3.15;2.85;;;;;;;37.32;26.77;100353.03;5029524;28;20298;-65
2023/08/13 10:55:25;;;;;;;2.60;2.40;;;;;;;37.47;26.43;100358.44;5029088;28;20685;-68
2023/08/13 10:57:54;;;;;;;3.15;2.78;;;;;;;37.39;26.52;100367.41;5025622;28;20203;-68
2023/08/13 11:00:26;;;;;;;5.13;3.50;;;;;;;37.58;26.45;100354.44;5026068;28;20572;-66
2023/08/13 11:02:58;;;;;;;11.35;3.60;;;;;;;37.69;25.86;100351.28;5031122;28;20309;-64
2023/08/13 11:05:27;;;;;;;2.58;2.38;;;;;;;37.98;25.53;100355.00;5019602;28;20659;-66
2023/08/13 11:07:55;;;;;;;6.93;3.13;;;;;;;38.04;25.41;100354.22;5032358;28;20581;-66
2023/08/13 11:10:23;;;;;;;3.45;2.65;;;;;;;37.95;25.47;100350.81;5025584;28;20214;-67
2023/08/13 11:12:51;;;;;;;6.05;2.80;;;;;;;37.91;25.46;100350.34;5025819;28;22732;-66
2023/08/13 11:15:19;;;;;;;3.67;2.70;;;;;;;37.92;25.20;100352.00;5027953;28;20215;-65
2023/08/13 11:17:48;;;;;;;2.75;2.45;;;;;;;37.47;25.82;100350.38;5033223;28;20293;-63
2023/08/13 11:20:18;;;;;;;2.88;2.65;;;;;;;37.33;25.87;100349.31;5031470;28;20653;-66
2023/08/13 11:22:46;;;;;;;4.00;3.25;;;;;;;37.19;26.06;100350.13;5031932;28;20195;-66
2023/08/13 11:25:15;;;;;;;2.72;2.40;;;;;;;37.27;25.96;100357.28;5027554;28;20285;-65
2023/08/13 11:27:43;;;;;;;3.17;2.88;;;;;;;37.22;25.86;100350.59;5021207;28;20251;-65
2023/08/13 11:30:11;;;;;;;2.83;2.60;;;;;;;36.77;26.38;100351.50;5028162;28;20199;-70
2023/08/13 11:32:40;;;;;;;3.30;2.70;;;;;;;36.27;27.44;100350.16;5032742;28;20305;-67